Time;durP1;ratioP1;P1;durP2;ratioP2;P2;SDS_P1;SDS_P2;PMS_P1;PMS_P2;Temp;Humidity;BMP_temperature;BMP_pressure;BME280_temperature;BME280_humidity;BME280_pressure;Samples;Min_cycle;Max_cycle;Signal;HPM_P1;HPM_P2
2023/05/01 00:00:04;;;;;;;;;;;8.70;94.10;;;;;;4997903;28;19968;-67
2023/05/01 00:02:30;;;;;;;;;;;8.70;94.20;;;;;;5024176;28;20640;-67
2023/05/01 00:04:55;;;;;;;;;;;8.70;94.10;;;;;;4979361;28;19928;-67
2023/05/01 00:07:21;;;;;;;;;;;8.80;94.40;;;;;;4998083;28;19928;-67
2023/05/01 00:09:47;;;;;;;;;;;8.70;94.20;;;;;;5014946;28;19917;-67
2023/05/01 00:12:12;;;;;;;;;;;8.80;94.20;;;;;;5011981;28;19957;-67
2023/05/01 00:14:38;;;;;;;;;;;8.70;94.40;;;;;;4982970;28;19925;-67
2023/05/01 00:17:05;;;;;;;;;;;8.70;95.00;;;;;;5015162;28;20520;-67
2023/05/01 00:19:31;;;;;;;;;;;8.50;95.40;;;;;;5024870;28;19972;-67
2023/05/01 00:21:57;;;;;;;;;;;8.50;95.80;;;;;;5018966;28;19936;-67
2023/05/01 00:24:23;;;;;;;;;;;8.50;97.50;;;;;;4999859;28;19962;-67
2023/05/01 00:26:48;;;;;;;;;;;8.40;98.70;;;;;;5026035;28;19975;-67
2023/05/01 00:29:14;;;;;;;;;;;8.30;99.30;;;;;;5007484;28;19971;-67
2023/05/01 00:31:42;;;;;;;;;;;8.30;99.90;;;;;;5023627;28;19913;-68
2023/05/01 00:34:08;;;;;;;;;;;8.30;99.90;;;;;;5001774;28;19918;-67
2023/05/01 00:36:34;;;;;;;;;;;8.40;99.90;;;;;;5008478;28;19913;-68
2023/05/01 00:39:00;;;;;;;;;;;8.40;99.90;;;;;;5010524;28;19928;-68
2023/05/01 00:41:26;;;;;;;;;;;8.40;99.90;;;;;;5013449;28;20326;-68
2023/05/01 00:43:52;;;;;;;;;;;8.40;99.90;;;;;;5005426;28;19967;-68
2023/05/01 00:46:18;;;;;;;;;;;8.40;99.90;;;;;;4992748;28;19913;-68
2023/05/01 00:48:44;;;;;;;;;;;8.40;99.90;;;;;;4992676;28;19914;-68
2023/05/01 00:51:10;;;;;;;;;;;8.40;99.90;;;;;;5018064;28;19940;-68
2023/05/01 00:53:35;;;;;;;;;;;8.40;99.90;;;;;;5012629;28;19996;-68
2023/05/01 00:56:01;;;;;;;;;;;8.30;99.90;;;;;;5034106;28;20257;-68
2023/05/01 00:58:27;;;;;;;;;;;8.30;99.90;;;;;;5013566;28;20318;-68
2023/05/01 01:00:53;;;;;;;;;;;8.20;99.90;;;;;;4995280;28;19913;-68
2023/05/01 01:03:20;;;;;;;;;;;8.30;99.90;;;;;;5019066;28;19923;-68
2023/05/01 01:05:48;;;;;;;;;;;8.20;99.90;;;;;;4993967;28;19917;-67
2023/05/01 01:08:17;;;;;;;;;;;8.20;99.90;;;;;;5014761;28;20578;-68
2023/05/01 01:10:50;;;;;;;;;;;8.20;99.90;;;;;;4996285;28;19924;-68
2023/05/01 01:13:26;;;;;;;;;;;8.10;99.90;;;;;;5002200;28;19975;-68
2023/05/01 01:16:18;;;;;;;;;;;8.10;99.90;;;;;;4988639;28;20293;-68
2023/05/01 01:19:02;;;;;;;;;;;8.20;99.90;;;;;;5033043;28;19913;-68
2023/05/01 01:21:28;;;;;;;;;;;8.10;99.90;;;;;;5017713;28;20230;-68
2023/05/01 01:23:59;;;;;;;;;;;8.00;99.90;;;;;;5025556;28;19919;-67
2023/05/01 01:26:26;;;;;;;;;;;7.90;99.90;;;;;;5005457;28;20349;-68
2023/05/01 01:29:16;;;;;;;;;;;7.90;99.90;;;;;;5005764;28;20012;-68
2023/05/01 01:31:51;;;;;;;;;;;7.80;99.90;;;;;;5010163;28;20459;-68
2023/05/01 01:34:24;;;;;;;;;;;7.80;99.90;;;;;;4989669;28;19963;-68
2023/05/01 01:37:10;;;;;;;;;;;7.80;99.90;;;;;;5011611;28;19918;-69
2023/05/01 01:39:43;;;;;;;;;;;7.80;99.90;;;;;;5016608;28;19917;-68
2023/05/01 01:42:11;;;;;;;;;;;7.90;99.90;;;;;;5006328;28;20234;-68
2023/05/01 01:44:57;;;;;;;;;;;7.80;99.90;;;;;;5011642;28;19917;-68
2023/05/01 01:47:27;;;;;;;;;;;7.80;99.90;;;;;;5022914;28;20027;-69
2023/05/01 01:49:52;;;;;;;;;;;7.70;99.90;;;;;;4995512;28;19927;-68
2023/05/01 01:52:19;;;;;;;;;;;7.70;99.90;;;;;;5000106;28;19921;-68
2023/05/01 01:54:49;;;;;;;;;;;7.60;99.90;;;;;;4971366;28;20864;-68
2023/05/01 01:57:16;;;;;;;;;;;7.60;99.90;;;;;;5016538;28;19983;-68
2023/05/01 01:59:42;;;;;;;;;;;7.60;99.90;;;;;;5009482;28;19959;-69
2023/05/01 02:02:08;;;;;;;;;;;7.60;99.90;;;;;;5005742;28;19960;-67
2023/05/01 02:04:35;;;;;;;;;;;7.60;99.90;;;;;;5008512;28;19913;-67
2023/05/01 02:07:00;;;;;;;;;;;7.50;99.90;;;;;;4994734;28;19928;-67
2023/05/01 02:09:26;;;;;;;;;;;7.50;99.90;;;;;;4978458;28;19921;-67
2023/05/01 02:11:53;;;;;;;;;;;7.50;99.90;;;;;;5007834;28;20332;-67
2023/05/01 02:14:19;;;;;;;;;;;7.50;99.90;;;;;;5027889;28;19991;-67
2023/05/01 02:16:45;;;;;;;;;;;7.40;99.90;;;;;;4997321;28;19968;-67
2023/05/01 02:19:11;;;;;;;;;;;7.40;99.90;;;;;;5012026;28;20094;-67
2023/05/01 02:21:38;;;;;;;;;;;7.40;99.90;;;;;;5025350;28;20288;-67
2023/05/01 02:24:04;;;;;;;;;;;7.50;99.90;;;;;;4979820;28;20004;-67
2023/05/01 02:26:29;;;;;;;;;;;7.40;99.90;;;;;;4996950;28;19924;-67
2023/05/01 02:28:55;;;;;;;;;;;7.30;99.90;;;;;;5017522;28;20222;-67
2023/05/01 02:31:21;;;;;;;;;;;7.40;99.90;;;;;;5009381;28;19928;-67
2023/05/01 02:33:47;;;;;;;;;;;7.30;99.90;;;;;;5011382;28;19953;-67
2023/05/01 02:36:13;;;;;;;;;;;7.30;99.90;;;;;;5005678;28;20489;-67
2023/05/01 02:38:39;;;;;;;;;;;7.30;99.90;;;;;;5013606;28;19947;-67
2023/05/01 02:41:04;;;;;;;;;;;7.30;99.90;;;;;;5027390;28;19914;-67
2023/05/01 02:43:31;;;;;;;;;;;7.30;99.90;;;;;;4993837;28;20008;-67
2023/05/01 02:45:57;;;;;;;;;;;7.30;99.90;;;;;;4998385;28;19972;-67
2023/05/01 02:48:25;;;;;;;;;;;7.30;99.90;;;;;;5010685;28;19917;-67
2023/05/01 02:50:50;;;;;;;;;;;7.20;99.90;;;;;;5020237;28;19921;-67
2023/05/01 02:53:16;;;;;;;;;;;7.10;99.90;;;;;;5005500;28;19917;-67
2023/05/01 02:55:42;;;;;;;;;;;7.10;99.90;;;;;;5005937;28;19931;-67
2023/05/01 02:58:08;;;;;;;;;;;7.10;99.90;;;;;;5009755;28;20004;-67
2023/05/01 03:00:34;;;;;;;;;;;7.10;99.90;;;;;;4993724;28;19917;-67
2023/05/01 03:03:00;;;;;;;;;;;7.10;99.90;;;;;;5023142;28;19913;-67
2023/05/01 03:05:25;;;;;;;;;;;7.10;99.90;;;;;;4987543;28;19913;-67
2023/05/01 03:07:51;;;;;;;;;;;7.10;99.90;;;;;;4992892;28;19932;-67
2023/05/01 03:10:17;;;;;;;;;;;7.10;99.90;;;;;;4990743;28;20018;-67
2023/05/01 03:12:43;;;;;;;;;;;7.10;99.90;;;;;;5004803;28;19917;-67
2023/05/01 03:15:10;;;;;;;;;;;7.10;99.90;;;;;;4994542;28;19921;-67
2023/05/01 03:17:36;;;;;;;;;;;7.00;99.90;;;;;;5022099;28;19921;-67
2023/05/01 03:20:05;;;;;;;;;;;7.00;99.90;;;;;;5003988;28;19924;-67
2023/05/01 03:22:31;;;;;;;;;;;7.00;99.90;;;;;;5011025;28;19917;-67
2023/05/01 03:24:58;;;;;;;;;;;7.10;99.90;;;;;;5007838;28;20255;-67
2023/05/01 03:27:24;;;;;;;;;;;7.00;99.90;;;;;;5003174;28;19928;-67
2023/05/01 03:29:49;;;;;;;;;;;7.00;99.90;;;;;;5025688;28;19913;-67
2023/05/01 03:32:16;;;;;;;;;;;7.00;99.90;;;;;;5025080;28;20488;-67
2023/05/01 03:34:43;;;;;;;;;;;7.00;99.90;;;;;;5005544;28;19975;-67
2023/05/01 03:37:09;;;;;;;;;;;7.00;99.90;;;;;;5007026;28;20443;-67
2023/05/01 03:39:35;;;;;;;;;;;6.90;99.90;;;;;;5004875;28;19962;-67
2023/05/01 03:42:01;;;;;;;;;;;6.90;99.90;;;;;;4989857;28;19913;-67
2023/05/01 03:44:27;;;;;;;;;;;6.80;99.90;;;;;;5026622;28;19917;-67
2023/05/01 03:46:54;;;;;;;;;;;6.80;99.90;;;;;;5025446;28;20362;-67
2023/05/01 03:49:19;;;;;;;;;;;6.80;99.90;;;;;;5014762;28;19917;-67
2023/05/01 03:51:45;;;;;;;;;;;6.80;99.90;;;;;;4984840;28;19928;-67
2023/05/01 03:54:11;;;;;;;;;;;6.80;99.90;;;;;;5002567;28;19917;-67
2023/05/01 03:56:37;;;;;;;;;;;6.80;99.90;;;;;;5019347;28;20468;-67
2023/05/01 03:59:03;;;;;;;;;;;6.80;99.90;;;;;;5020113;28;19928;-67
2023/05/01 04:01:28;;;;;;;;;;;6.80;99.90;;;;;;5002638;28;19921;-67
2023/05/01 04:03:54;;;;;;;;;;;6.80;99.90;;;;;;5005091;28;19964;-67
2023/05/01 04:06:21;;;;;;;;;;;6.80;99.90;;;;;;5011783;28;20538;-67
2023/05/01 04:08:47;;;;;;;;;;;6.80;99.90;;;;;;5007992;28;19921;-67
2023/05/01 04:11:12;;;;;;;;;;;6.80;99.90;;;;;;4995305;28;20325;-67
2023/05/01 04:13:38;;;;;;;;;;;6.70;99.90;;;;;;5020614;28;19921;-67
2023/05/01 04:16:06;;;;;;;;;;;6.70;99.90;;;;;;5008032;28;20080;-67
2023/05/01 04:18:32;;;;;;;;;;;6.70;99.90;;;;;;4992524;28;19921;-67
2023/05/01 04:20:58;;;;;;;;;;;6.70;99.90;;;;;;5024135;28;19925;-67
2023/05/01 04:23:23;;;;;;;;;;;6.70;99.90;;;;;;4989287;28;19920;-67
2023/05/01 04:25:50;;;;;;;;;;;6.70;99.90;;;;;;4988938;28;19925;-67
2023/05/01 04:28:16;;;;;;;;;;;6.70;99.90;;;;;;4978320;28;19913;-67
2023/05/01 04:30:41;;;;;;;;;;;6.80;99.90;;;;;;5009904;28;19944;-67
2023/05/01 04:33:10;;;;;;;;;;;6.90;99.90;;;;;;4997475;28;20020;-68
2023/05/01 04:35:37;;;;;;;;;;;6.90;99.90;;;;;;5023957;28;19921;-68
2023/05/01 04:38:04;;;;;;;;;;;6.90;99.90;;;;;;5002567;28;19980;-68
2023/05/01 04:40:30;;;;;;;;;;;6.90;99.90;;;;;;5011401;28;19967;-68
2023/05/01 04:42:55;;;;;;;;;;;6.90;99.90;;;;;;5014177;28;19917;-68
2023/05/01 04:45:21;;;;;;;;;;;7.00;99.90;;;;;;5023913;28;19914;-68
2023/05/01 04:47:47;;;;;;;;;;;6.90;99.90;;;;;;5001823;28;19921;-68
2023/05/01 04:50:13;;;;;;;;;;;7.00;99.90;;;;;;5007772;28;19971;-68
2023/05/01 04:52:38;;;;;;;;;;;7.10;99.90;;;;;;5018573;28;19957;-68
2023/05/01 04:55:04;;;;;;;;;;;7.10;99.90;;;;;;5021797;28;19979;-68
2023/05/01 04:57:30;;;;;;;;;;;7.00;99.90;;;;;;5005770;28;19980;-68
2023/05/01 04:59:56;;;;;;;;;;;7.10;99.90;;;;;;5003496;28;19924;-68
2023/05/01 05:02:21;;;;;;;;;;;7.10;99.90;;;;;;4991943;28;19917;-68
2023/05/01 05:04:47;;;;;;;;;;;7.10;99.90;;;;;;5016737;28;20330;-68
2023/05/01 05:07:13;;;;;;;;;;;7.10;99.90;;;;;;4995676;28;20265;-68
2023/05/01 05:09:38;;;;;;;;;;;7.20;99.90;;;;;;5008080;28;19963;-67
2023/05/01 05:12:04;;;;;;;;;;;7.20;99.90;;;;;;4985289;28;20294;-68
2023/05/01 05:14:30;;;;;;;;;;;7.30;99.90;;;;;;4987920;28;19917;-68
2023/05/01 05:16:55;;;;;;;;;;;7.30;99.90;;;;;;4986512;28;19956;-68
2023/05/01 05:19:21;;;;;;;;;;;7.30;99.90;;;;;;5020512;28;20334;-67
2023/05/01 05:21:46;;;;;;;;;;;7.20;99.90;;;;;;5013739;28;19920;-68
2023/05/01 05:24:12;;;;;;;;;;;7.20;99.90;;;;;;5016774;28;20275;-68
2023/05/01 05:26:38;;;;;;;;;;;7.30;99.90;;;;;;5020363;28;20339;-68
2023/05/01 05:29:04;;;;;;;;;;;7.40;99.90;;;;;;5009197;28;19917;-68
2023/05/01 05:31:29;;;;;;;;;;;7.40;99.90;;;;;;5012736;28;20473;-68
2023/05/01 05:33:55;;;;;;;;;;;7.50;99.90;;;;;;5028944;28;19921;-68
2023/05/01 05:36:20;;;;;;;;;;;7.50;99.90;;;;;;5006218;28;19929;-69
2023/05/01 05:38:46;;;;;;;;;;;7.60;99.90;;;;;;5011517;28;19924;-68
2023/05/01 05:41:12;;;;;;;;;;;7.70;99.90;;;;;;5008271;28;19929;-68
2023/05/01 05:43:37;;;;;;;;;;;7.70;99.90;;;;;;5012927;28;19979;-68
2023/05/01 05:46:03;;;;;;;;;;;7.80;99.90;;;;;;5011549;28;20320;-68
2023/05/01 05:48:29;;;;;;;;;;;7.90;99.90;;;;;;4994241;28;19921;-68
2023/05/01 05:50:55;;;;;;;;;;;7.90;99.90;;;;;;5034661;28;20226;-68
2023/05/01 05:53:22;;;;;;;;;;;7.90;99.90;;;;;;5035309;28;19924;-67
2023/05/01 05:55:48;;;;;;;;;;;8.00;99.90;;;;;;5018014;28;19932;-67
2023/05/01 05:58:18;;;;;;;;;;;8.10;99.90;;;;;;5038421;28;19917;-67
2023/05/01 06:00:52;;;;;;;;;;;8.10;99.90;;;;;;5016755;28;20626;-67
2023/05/01 06:03:18;;;;;;;;;;;8.20;99.90;;;;;;5005318;28;20024;-67
2023/05/01 06:05:43;;;;;;;;;;;8.20;99.90;;;;;;5023157;28;19917;-68
2023/05/01 06:08:09;;;;;;;;;;;8.30;99.90;;;;;;5027946;28;19932;-67
2023/05/01 06:10:36;;;;;;;;;;;8.50;99.90;;;;;;5024979;28;19920;-67
2023/05/01 06:13:02;;;;;;;;;;;8.50;99.90;;;;;;5038762;28;19924;-67
2023/05/01 06:15:28;;;;;;;;;;;8.60;99.10;;;;;;5003449;28;19921;-67
2023/05/01 06:17:54;;;;;;;;;;;8.70;98.90;;;;;;5017445;28;20214;-67
2023/05/01 06:20:19;;;;;;;;;;;8.80;98.10;;;;;;5029405;28;19928;-67
2023/05/01 06:22:45;;;;;;;;;;;8.90;97.60;;;;;;5005813;28;19924;-67
2023/05/01 06:25:11;;;;;;;;;;;8.90;97.40;;;;;;5037003;28;19984;-67
2023/05/01 06:27:37;;;;;;;;;;;9.10;96.80;;;;;;5036769;28;20293;-67
2023/05/01 06:30:03;;;;;;;;;;;9.20;96.30;;;;;;5040658;28;19944;-67
2023/05/01 06:32:29;;;;;;;;;;;9.30;96.20;;;;;;5023744;28;19921;-67
2023/05/01 06:34:54;;;;;;;;;;;9.40;96.30;;;;;;5034768;28;19929;-67
2023/05/01 06:37:20;;;;;;;;;;;9.60;95.20;;;;;;5022442;28;19917;-67
2023/05/01 06:39:46;;;;;;;;;;;9.70;94.80;;;;;;5027378;28;20648;-68
2023/05/01 06:42:15;;;;;;;;;;;9.70;95.40;;;;;;5003257;28;19923;-67
2023/05/01 06:44:41;;;;;;;;;;;9.80;95.60;;;;;;4991484;28;19944;-67
2023/05/01 06:47:06;;;;;;;;;;;9.90;95.40;;;;;;5036871;28;20309;-67
2023/05/01 06:49:32;;;;;;;;;;;10.00;95.30;;;;;;5020494;28;19918;-67
2023/05/01 06:51:58;;;;;;;;;;;10.10;94.50;;;;;;5000023;28;19974;-68
2023/05/01 06:54:25;;;;;;;;;;;10.10;93.50;;;;;;5017548;28;19922;-68
2023/05/01 06:56:51;;;;;;;;;;;10.20;92.60;;;;;;5018973;28;20277;-68
2023/05/01 06:59:17;;;;;;;;;;;10.30;92.60;;;;;;5009622;28;19916;-68
2023/05/01 07:01:43;;;;;;;;;;;10.40;92.40;;;;;;5021376;28;19968;-68
2023/05/01 07:04:09;;;;;;;;;;;10.50;92.20;;;;;;4990987;28;19924;-67
2023/05/01 07:06:36;;;;;;;;;;;10.60;92.10;;;;;;4997142;28;20313;-67
2023/05/01 07:09:02;;;;;;;;;;;10.60;92.20;;;;;;5021052;28;19917;-69
2023/05/01 07:11:28;;;;;;;;;;;10.70;91.80;;;;;;5022798;28;19999;-67
2023/05/01 07:13:53;;;;;;;;;;;10.80;91.80;;;;;;5023969;28;20008;-68
2023/05/01 07:16:19;;;;;;;;;;;10.90;91.70;;;;;;5021784;28;19929;-68
2023/05/01 07:18:45;;;;;;;;;;;11.00;91.20;;;;;;5024764;28;19916;-68
2023/05/01 07:21:11;;;;;;;;;;;11.10;91.20;;;;;;5023859;28;19917;-68
2023/05/01 07:23:37;;;;;;;;;;;11.20;91.40;;;;;;5023653;28;19927;-68
2023/05/01 07:26:03;;;;;;;;;;;11.30;90.70;;;;;;5040442;28;19921;-68
2023/05/01 07:28:29;;;;;;;;;;;11.30;90.20;;;;;;5004559;28;19987;-73
2023/05/01 07:30:54;;;;;;;;;;;11.40;90.10;;;;;;5037679;28;19917;-73
2023/05/01 07:33:20;;;;;;;;;;;11.60;92.20;;;;;;5032482;28;19947;-72
2023/05/01 07:35:46;;;;;;;;;;;11.80;92.30;;;;;;5012648;28;20298;-73
2023/05/01 07:38:12;;;;;;;;;;;11.90;90.30;;;;;;5016848;28;19925;-72
2023/05/01 07:40:38;;;;;;;;;;;11.90;90.20;;;;;;5029432;28;19918;-73
2023/05/01 07:43:04;;;;;;;;;;;12.00;90.30;;;;;;5033853;28;20012;-73
2023/05/01 07:45:31;;;;;;;;;;;12.20;93.20;;;;;;4999005;28;19917;-73
2023/05/01 07:47:56;;;;;;;;;;;12.30;90.90;;;;;;5005037;28;19971;-73
2023/05/01 07:50:22;;;;;;;;;;;12.40;90.20;;;;;;5033131;28;20282;-73
2023/05/01 07:52:48;;;;;;;;;;;12.40;89.00;;;;;;5005026;28;19940;-73
2023/05/01 07:55:13;;;;;;;;;;;12.50;87.70;;;;;;5040910;28;19929;-70
2023/05/01 07:57:39;;;;;;;;;;;12.60;90.40;;;;;;5030854;28;19925;-71
2023/05/01 08:00:05;;;;;;;;;;;12.70;88.50;;;;;;5046249;28;20329;-71
2023/05/01 08:02:31;;;;;;;;;;;12.70;87.70;;;;;;5024120;28;19916;-71
2023/05/01 08:04:57;;;;;;;;;;;12.70;84.10;;;;;;5025795;28;19970;-70
2023/05/01 08:07:23;;;;;;;;;;;12.80;83.50;;;;;;4993326;28;19913;-71
2023/05/01 08:09:48;;;;;;;;;;;12.80;84.60;;;;;;5002671;28;19917;-71
2023/05/01 08:12:14;;;;;;;;;;;12.90;85.50;;;;;;4986917;28;19961;-73
2023/05/01 08:14:39;;;;;;;;;;;13.00;83.90;;;;;;4994373;28;19913;-74
2023/05/01 08:17:05;;;;;;;;;;;13.10;86.70;;;;;;5010918;28;19947;-74
2023/05/01 08:19:32;;;;;;;;;;;13.20;84.00;;;;;;5003745;28;19995;-74
2023/05/01 08:21:57;;;;;;;;;;;13.30;83.80;;;;;;5004910;28;19928;-74
2023/05/01 08:24:23;;;;;;;;;;;13.40;84.90;;;;;;5006814;28;19917;-74
2023/05/01 08:26:49;;;;;;;;;;;13.40;82.20;;;;;;4971243;28;19929;-73
2023/05/01 08:29:15;;;;;;;;;;;13.50;83.60;;;;;;5010513;28;19921;-74
2023/05/01 08:31:42;;;;;;;;;;;13.60;83.80;;;;;;5006109;28;20008;-74
2023/05/01 08:34:07;;;;;;;;;;;13.60;81.30;;;;;;5031636;28;20636;-74
2023/05/01 08:36:33;;;;;;;;;;;13.60;80.90;;;;;;5011178;28;20011;-74
2023/05/01 08:38:59;;;;;;;;;;;13.60;82.00;;;;;;5010688;28;19963;-74
2023/05/01 08:41:25;;;;;;;;;;;13.70;82.70;;;;;;5029402;28;19971;-74
2023/05/01 08:43:50;;;;;;;;;;;13.80;82.50;;;;;;4980885;28;19925;-74
2023/05/01 08:46:23;;;;;;;;;;;13.80;81.80;;;;;;4977318;28;19917;-74
2023/05/01 08:48:49;;;;;;;;;;;13.90;82.10;;;;;;5013347;28;19913;-74
2023/05/01 08:51:16;;;;;;;;;;;13.90;81.80;;;;;;5006688;28;19929;-74
2023/05/01 08:53:42;;;;;;;;;;;13.90;80.00;;;;;;5010078;28;19914;-74
2023/05/01 08:56:08;;;;;;;;;;;14.00;80.60;;;;;;5009900;28;19929;-74
2023/05/01 08:58:34;;;;;;;;;;;14.10;82.00;;;;;;4971715;28;19928;-74
2023/05/01 09:01:01;;;;;;;;;;;14.20;80.30;;;;;;5010436;28;19921;-74
2023/05/01 09:03:27;;;;;;;;;;;14.20;81.50;;;;;;4968761;28;19918;-74
2023/05/01 09:05:53;;;;;;;;;;;14.20;79.40;;;;;;5001820;28;20257;-74
2023/05/01 09:08:19;;;;;;;;;;;14.30;80.60;;;;;;4999850;28;19921;-74
2023/05/01 09:10:45;;;;;;;;;;;14.30;80.60;;;;;;5010275;28;19925;-74
2023/05/01 09:13:11;;;;;;;;;;;14.40;78.90;;;;;;4991324;28;19917;-74
2023/05/01 09:15:37;;;;;;;;;;;14.40;78.60;;;;;;4991877;28;20022;-74
2023/05/01 09:18:02;;;;;;;;;;;14.40;78.00;;;;;;5001752;28;19984;-74
2023/05/01 09:20:28;;;;;;;;;;;14.40;77.30;;;;;;5014719;28;19913;-74
2023/05/01 09:22:55;;;;;;;;;;;14.40;77.10;;;;;;5003158;28;19913;-73
2023/05/01 09:25:21;;;;;;;;;;;14.50;79.10;;;;;;5020301;28;20165;-73
2023/05/01 09:27:47;;;;;;;;;;;14.60;79.80;;;;;;4997313;28;20322;-74
2023/05/01 09:30:33;;;;;;;;;;;14.80;80.80;;;;;;5029633;28;20468;-73
2023/05/01 09:33:12;;;;;;;;;;;14.80;80.70;;;;;;5032614;28;20338;-74
2023/05/01 09:35:51;;;;;;;;;;;15.00;80.60;;;;;;5003249;28;19918;-74
2023/05/01 09:38:17;;;;;;;;;;;15.10;79.70;;;;;;4985653;28;20254;-73
2023/05/01 09:40:42;;;;;;;;;;;15.10;79.40;;;;;;4989350;28;19917;-73
2023/05/01 09:43:08;;;;;;;;;;;15.20;79.90;;;;;;4999533;28;20668;-73
2023/05/01 09:45:35;;;;;;;;;;;15.30;79.00;;;;;;4986071;28;19924;-73
2023/05/01 09:48:11;;;;;;;;;;;15.40;81.80;;;;;;5010812;28;20000;-73
2023/05/01 09:50:38;;;;;;;;;;;15.40;79.10;;;;;;4985892;28;20315;-73
2023/05/01 09:53:05;;;;;;;;;;;15.40;78.00;;;;;;4988266;28;19949;-73
2023/05/01 09:55:31;;;;;;;;;;;15.50;77.10;;;;;;4988522;28;20036;-74
2023/05/01 09:57:57;;;;;;;;;;;15.50;76.20;;;;;;5005433;28;19993;-73
2023/05/01 10:00:23;;;;;;;;;;;15.60;77.80;;;;;;4967683;28;19917;-73
2023/05/01 10:02:49;;;;;;;;;;;15.70;80.90;;;;;;4994773;28;20318;-74
2023/05/01 10:05:15;;;;;;;;;;;15.80;80.20;;;;;;4998240;28;19921;-73
2023/05/01 10:07:55;;;;;;;;;;;15.90;77.50;;;;;;5018491;28;19921;-74
2023/05/01 10:10:21;;;;;;;;;;;15.90;78.20;;;;;;4993076;28;20348;-74
2023/05/01 10:13:06;;;;;;;;;;;16.00;80.60;;;;;;5018169;28;19956;-74
2023/05/01 10:15:37;;;;;;;;;;;16.20;80.70;;;;;;5010632;28;19921;-74
2023/05/01 10:18:03;;;;;;;;;;;16.30;80.90;;;;;;5009381;28;20659;-73
2023/05/01 10:20:29;;;;;;;;;;;16.40;78.50;;;;;;5013600;28;20006;-73
2023/05/01 10:22:55;;;;;;;;;;;16.50;78.40;;;;;;4990775;28;20267;-74
2023/05/01 10:25:21;;;;;;;;;;;16.50;77.80;;;;;;4986804;28;19943;-74
2023/05/01 10:27:47;;;;;;;;;;;16.60;78.50;;;;;;4998188;28;20246;-74
2023/05/01 10:30:13;;;;;;;;;;;16.70;79.40;;;;;;4997769;28;19924;-74
2023/05/01 10:32:40;;;;;;;;;;;16.90;79.40;;;;;;5002496;28;19917;-74
2023/05/01 10:35:13;;;;;;;;;;;16.90;78.60;;;;;;5014208;28;19921;-74
2023/05/01 10:37:44;;;;;;;;;;;17.20;78.60;;;;;;5009404;28;19933;-74
2023/05/01 10:40:28;;;;;;;;;;;17.20;74.80;;;;;;5003270;28;20457;-74
2023/05/01 10:43:12;;;;;;;;;;;17.10;76.80;;;;;;5014811;28;19928;-74
2023/05/01 10:45:38;;;;;;;;;;;17.10;75.90;;;;;;5011153;28;19914;-73
2023/05/01 10:48:05;;;;;;;;;;;17.00;73.40;;;;;;5012187;28;19917;-74
2023/05/01 10:50:31;;;;;;;;;;;17.10;74.80;;;;;;5018666;28;19914;-74
2023/05/01 10:53:09;;;;;;;;;;;17.20;75.60;;;;;;5021470;28;19944;-73
2023/05/01 10:55:35;;;;;;;;;;;17.40;75.30;;;;;;5018940;28;19917;-74
2023/05/01 10:58:01;;;;;;;;;;;17.30;74.50;;;;;;5025573;28;20296;-73
2023/05/01 11:00:27;;;;;;;;;;;17.40;77.00;;;;;;5007794;28;19971;-73
2023/05/01 11:03:12;;;;;;;;;;;17.40;73.30;;;;;;5006500;28;19925;-73
2023/05/01 11:05:56;;;;;;;;;;;17.60;75.30;;;;;;5014111;28;20362;-74
2023/05/01 11:08:27;;;;;;;;;;;17.70;74.60;;;;;;5021311;28;20004;-74
2023/05/01 11:10:54;;;;;;;;;;;17.80;73.20;;;;;;5019059;28;19995;-74
2023/05/01 11:13:39;;;;;;;;;;;17.80;73.70;;;;;;5003753;28;19965;-74
2023/05/01 11:16:24;;;;;;;;;;;18.00;73.40;;;;;;5004011;28;19921;-74
2023/05/01 11:18:50;;;;;;;;;;;18.10;73.10;;;;;;5021081;28;20372;-74
2023/05/01 11:21:16;;;;;;;;;;;18.20;71.30;;;;;;4987434;28;19917;-74
2023/05/01 11:23:45;;;;;;;;;;;18.30;72.00;;;;;;5011442;28;20261;-74
2023/05/01 11:26:11;;;;;;;;;;;18.60;72.50;;;;;;5034243;28;19923;-74
2023/05/01 11:28:37;;;;;;;;;;;18.60;71.10;;;;;;4993677;28;20003;-74
2023/05/01 11:31:03;;;;;;;;;;;18.50;70.20;;;;;;4989352;28;19971;-74
2023/05/01 11:33:28;;;;;;;;;;;18.70;70.70;;;;;;5017439;28;19925;-74
2023/05/01 11:35:59;;;;;;;;;;;18.80;70.90;;;;;;4981673;28;19956;-75
2023/05/01 11:38:24;;;;;;;;;;;18.80;71.30;;;;;;5000070;28;19924;-74
2023/05/01 11:40:54;;;;;;;;;;;19.00;70.90;;;;;;4982157;28;20207;-75
2023/05/01 11:43:20;;;;;;;;;;;19.10;71.60;;;;;;5009630;28;20004;-75
2023/05/01 11:45:46;;;;;;;;;;;19.30;69.90;;;;;;5014514;28;19916;-76
2023/05/01 11:48:17;;;;;;;;;;;19.50;72.70;;;;;;5010240;28;19983;-75
2023/05/01 11:50:43;;;;;;;;;;;19.70;71.30;;;;;;5010462;28;19920;-75
2023/05/01 11:53:16;;;;;;;;;;;19.80;71.00;;;;;;4987830;28;20309;-75
2023/05/01 11:55:41;;;;;;;;;;;19.60;66.80;;;;;;5000662;28;19917;-76
2023/05/01 11:58:07;;;;;;;;;;;19.50;64.00;;;;;;5005620;28;20612;-75
2023/05/01 12:00:38;;;;;;;;;;;19.60;64.80;;;;;;4971478;28;20000;-75
2023/05/01 12:03:05;;;;;;;;;;;19.90;64.20;;;;;;5016394;28;20242;-75
2023/05/01 12:05:31;;;;;;;;;;;19.60;63.60;;;;;;5020471;28;19927;-75
2023/05/01 12:08:09;;;;;;;;;;;19.90;62.10;;;;;;5012621;28;19991;-76
2023/05/01 12:10:34;;;;;;;;;;;20.00;62.90;;;;;;5004846;28;19917;-75
2023/05/01 12:13:06;;;;;;;;;;;19.90;60.30;;;;;;5001718;28;19996;-75
2023/05/01 12:15:33;;;;;;;;;;;19.70;63.50;;;;;;5011872;28;20314;-75
2023/05/01 12:17:59;;;;;;;;;;;19.90;64.80;;;;;;4993927;28;19991;-76
2023/05/01 12:20:37;;;;;;;;;;;19.90;62.40;;;;;;5010244;28;19954;-75
2023/05/01 12:23:04;;;;;;;;;;;20.00;61.50;;;;;;5001428;28;19971;-75
2023/05/01 12:25:32;;;;;;;;;;;20.10;58.90;;;;;;4993367;28;20394;-75
2023/05/01 12:27:58;;;;;;;;;;;19.90;61.00;;;;;;4982354;28;19943;-75
2023/05/01 12:30:25;;;;;;;;;;;20.00;60.70;;;;;;4987237;28;19963;-75
2023/05/01 12:32:51;;;;;;;;;;;20.10;59.70;;;;;;5003737;28;19917;-75
2023/05/01 12:35:17;;;;;;;;;;;20.10;59.80;;;;;;4997720;28;19932;-75
2023/05/01 12:37:42;;;;;;;;;;;20.20;60.60;;;;;;5009826;28;20369;-75
2023/05/01 12:40:12;;;;;;;;;;;20.00;59.70;;;;;;4993991;28;19928;-75
2023/05/01 12:42:38;;;;;;;;;;;19.90;58.60;;;;;;5012413;28;19921;-75
2023/05/01 12:45:03;;;;;;;;;;;19.90;61.40;;;;;;5019219;28;19917;-75
2023/05/01 12:47:35;;;;;;;;;;;20.00;59.80;;;;;;5006888;28;19932;-75
2023/05/01 12:50:03;;;;;;;;;;;19.90;59.30;;;;;;5026406;28;19943;-74
2023/05/01 12:52:29;;;;;;;;;;;19.80;60.20;;;;;;5020752;28;19923;-74
2023/05/01 12:55:04;;;;;;;;;;;20.00;60.30;;;;;;5015434;28;19921;-75
2023/05/01 12:57:30;;;;;;;;;;;20.00;60.40;;;;;;5034724;28;19925;-76
2023/05/01 13:00:02;;;;;;;;;;;20.00;60.50;;;;;;5024274;28;19928;-75
2023/05/01 13:02:28;;;;;;;;;;;20.00;58.00;;;;;;5018415;28;19949;-75
2023/05/01 13:05:04;;;;;;;;;;;19.70;58.80;;;;;;4993869;28;19917;-74
2023/05/01 13:07:29;;;;;;;;;;;20.00;59.10;;;;;;4988121;28;19931;-75
2023/05/01 13:09:56;;;;;;;;;;;20.30;60.50;;;;;;5008684;28;19917;-75
2023/05/01 13:12:22;;;;;;;;;;;20.10;59.60;;;;;;5008558;28;19921;-74
2023/05/01 13:14:47;;;;;;;;;;;20.10;58.70;;;;;;4995821;28;19924;-75
2023/05/01 13:17:20;;;;;;;;;;;20.00;58.60;;;;;;5001132;28;19925;-75
2023/05/01 13:19:46;;;;;;;;;;;19.80;58.80;;;;;;5016809;28;20389;-74
2023/05/01 13:22:14;;;;;;;;;;;19.50;60.10;;;;;;4981067;28;20032;-74
2023/05/01 13:24:40;;;;;;;;;;;19.40;58.90;;;;;;4992134;28;19917;-75
2023/05/01 13:27:10;;;;;;;;;;;19.40;59.40;;;;;;5011178;28;19927;-74
2023/05/01 13:29:35;;;;;;;;;;;19.20;58.70;;;;;;5007548;28;19956;-75
2023/05/01 13:32:02;;;;;;;;;;;19.10;60.40;;;;;;5024768;28;19957;-74
2023/05/01 13:34:28;;;;;;;;;;;19.10;61.40;;;;;;4992273;28;20420;-74
2023/05/01 13:36:54;;;;;;;;;;;19.20;59.70;;;;;;5024121;28;19921;-75
2023/05/01 13:39:20;;;;;;;;;;;19.30;60.60;;;;;;5002575;28;20004;-75
2023/05/01 13:41:46;;;;;;;;;;;19.40;59.90;;;;;;5012908;28;19995;-75
2023/05/01 13:44:11;;;;;;;;;;;19.60;60.20;;;;;;4990427;28;20229;-75
2023/05/01 13:46:38;;;;;;;;;;;19.60;60.10;;;;;;4994340;28;19925;-75
2023/05/01 13:49:04;;;;;;;;;;;19.60;59.40;;;;;;5011677;28;20223;-74
2023/05/01 13:51:31;;;;;;;;;;;19.60;59.20;;;;;;5008224;28;19947;-76
2023/05/01 13:53:57;;;;;;;;;;;19.80;59.90;;;;;;4998892;28;20004;-76
2023/05/01 13:56:23;;;;;;;;;;;19.90;59.10;;;;;;5009172;28;20039;-75
2023/05/01 13:58:49;;;;;;;;;;;19.80;59.40;;;;;;4983482;28;19917;-75
2023/05/01 14:01:15;;;;;;;;;;;19.70;58.40;;;;;;4990062;28;19913;-75
2023/05/01 14:03:41;;;;;;;;;;;19.70;58.90;;;;;;4994602;28;19914;-75
2023/05/01 14:06:11;;;;;;;;;;;19.60;59.80;;;;;;5006074;28;19985;-75
2023/05/01 14:08:36;;;;;;;;;;;19.60;60.10;;;;;;5009975;28;20004;-75
2023/05/01 14:11:06;;;;;;;;;;;19.40;59.30;;;;;;4979816;28;20004;-75
2023/05/01 14:13:32;;;;;;;;;;;19.30;58.80;;;;;;4995327;28;19944;-75
2023/05/01 14:15:58;;;;;;;;;;;19.40;59.60;;;;;;4990122;28;19979;-75
2023/05/01 14:18:23;;;;;;;;;;;19.70;59.70;;;;;;5035430;28;19928;-75
2023/05/01 14:20:49;;;;;;;;;;;19.60;58.40;;;;;;5023234;28;19960;-76
2023/05/01 14:23:15;;;;;;;;;;;20.00;58.30;;;;;;5010088;28;19917;-75